Nautilus Survey — LIXR — position and weather

sailwx.info

Track history (hours):
 
Tides and Currents Weather Stations Pressure Air Temp Water Temp Dewpoint Dewpoint Depression Visibility Wind Speed Wind Dir Waves Ship Positions

Nautilus Survey

Last reported at 2017-Sep-24 22:30 UTC. Time now 2017-Sep-24 23:01 UTC.
Position N 61°08' E 005°01'.

Length 24 m; draft 2 m.

Type: Dredging. MMSI: 259464000.

Date/timePositionNaut miles runAvg speedWind from/ knotsBaromVisibWave heightAir tempDewpointWater temp
2017-Sep-24 22:30N 61°08' E 005°01'0 0.0
2017-Sep-24 22:00N 61°08' E 005°01'0 0.0
2017-Sep-24 21:30N 61°08' E 005°01'0 0.0
2017-Sep-24 21:00N 61°08' E 005°01'0 0.0
2017-Sep-24 20:30N 61°08' E 005°01'0 0.0
2017-Sep-24 19:59N 61°08' E 005°01'0 0.0
2017-Sep-24 19:30N 61°08' E 005°01'0 0.0
2017-Sep-24 19:00N 61°08' E 005°01'4 8.9
2017-Sep-24 18:30N 61°04' E 004°59'5 9.7
2017-Sep-24 18:00N 60°59' E 004°55'510.3
2017-Sep-24 17:30N 60°54' E 004°58'510.2
2017-Sep-24 17:00N 60°49' E 004°57'5 9.8
2017-Sep-24 16:30N 60°45' E 005°02'5 9.2
2017-Sep-24 16:00N 60°41' E 005°06'4 8.7
2017-Sep-24 15:30N 60°37' E 005°11'4 8.7
2017-Sep-24 15:00N 60°33' E 005°15'4 8.9
2017-Sep-24 14:30N 60°29' E 005°15'3 5.7
2017-Sep-24 13:59N 60°27' E 005°19'0 0.0
2017-Sep-24 13:30N 60°27' E 005°19'1 1.9
2017-Sep-24 13:00N 60°27' E 005°17'5 8.9
2017-Sep-24 12:30N 60°23' E 005°11'5 9.5
2017-Sep-24 12:00N 60°26' E 005°03'3 6.7
2017-Sep-24 11:30N 60°27' E 004°57'1 1.5
2017-Sep-24 11:00N 60°26' E 004°57'0 0.1
2017-Sep-24 10:30N 60°26' E 004°57'0 0.0
2017-Sep-24 10:00N 60°26' E 004°57'0 0.6
2017-Sep-24 09:30N 60°27' E 004°57'0 0.4
2017-Sep-24 09:00N 60°27' E 004°57'0 0.6
2017-Sep-24 08:30N 60°27' E 004°56'0 0.6
2017-Sep-24 08:00N 60°27' E 004°56'0 0.0
2017-Sep-24 07:30N 60°27' E 004°56'0 0.0
2017-Sep-24 07:00N 60°27' E 004°56'0 0.0
2017-Sep-24 06:30N 60°27' E 004°56'0 0.0
2017-Sep-24 06:01N 60°27' E 004°56'0 0.0
2017-Sep-24 05:30N 60°27' E 004°56'0 0.0
2017-Sep-24 05:00N 60°27' E 004°56'0 0.0
2017-Sep-24 04:29N 60°27' E 004°56'0 0.0
2017-Sep-24 04:00N 60°27' E 004°56'0 0.0
2017-Sep-24 03:30N 60°27' E 004°56'0 0.0
2017-Sep-24 03:00N 60°27' E 004°56'0 0.0
2017-Sep-24 02:30N 60°27' E 004°56'0 0.0
2017-Sep-24 02:00N 60°27' E 004°56'0 0.0
2017-Sep-24 01:30N 60°27' E 004°56'0 0.0
2017-Sep-24 01:00N 60°27' E 004°56'0 0.0
2017-Sep-24 00:30N 60°27' E 004°56'0 0.0
2017-Sep-24 00:00N 60°27' E 004°56'0 0.0
2017-Sep-23 23:30N 60°27' E 004°56'0 0.0
2017-Sep-23 23:00N 60°27' E 004°56'0 0.0
2017-Sep-23 22:30N 60°27' E 004°56'0 0.0
2017-Sep-23 22:00N 60°27' E 004°56'0 0.0
2017-Sep-23 21:30N 60°27' E 004°56'0 0.0
2017-Sep-23 21:00N 60°27' E 004°56'0 0.0
2017-Sep-23 20:30N 60°27' E 004°56'0 0.0
2017-Sep-23 20:00N 60°27' E 004°56'1 0.0
2017-Sep-22 01:59N 60°27' E 004°57'0 0.0
2017-Sep-22 01:30N 60°27' E 004°57'0 0.0
2017-Sep-22 01:00N 60°27' E 004°57'0 0.0
2017-Sep-22 00:30N 60°27' E 004°57'0 0.0
2017-Sep-22 00:00N 60°27' E 004°57'0 0.0
2017-Sep-21 23:29N 60°27' E 004°57'0 0.0
2017-Sep-21 23:00N 60°27' E 004°57'0 0.0
2017-Sep-21 22:30N 60°27' E 004°57'0 0.0
2017-Sep-21 22:00N 60°27' E 004°57'0 0.0
2017-Sep-21 21:29N 60°27' E 004°57'0 0.0
2017-Sep-21 21:00N 60°27' E 004°57'0 0.0
2017-Sep-21 20:29N 60°27' E 004°57'0 0.0
2017-Sep-21 20:00N 60°27' E 004°57'0 0.0
2017-Sep-21 19:30N 60°27' E 004°57'0 0.0
2017-Sep-21 19:00N 60°27' E 004°57'0 0.0
2017-Sep-21 18:30N 60°27' E 004°57'0 0.0
2017-Sep-21 18:00N 60°27' E 004°57'0 0.0
2017-Sep-21 17:30N 60°27' E 004°57'1 1.7
2017-Sep-21 17:00N 60°27' E 004°57'0 0.6
2017-Sep-21 16:30N 60°27' E 004°57'0 0.5
2017-Sep-21 16:00N 60°27' E 004°57'0 0.4
2017-Sep-21 15:30N 60°26' E 004°57'0 0.1
2017-Sep-21 15:00N 60°26' E 004°57'1 1.2
2017-Sep-21 14:30N 60°27' E 004°57'0 0.1
2017-Sep-21 14:00N 60°27' E 004°57'0 0.4
2017-Sep-21 13:30N 60°27' E 004°56'0 0.4
2017-Sep-21 13:00N 60°27' E 004°56'0 0.2
2017-Sep-21 12:30N 60°27' E 004°56'0 0.1
2017-Sep-21 12:00N 60°27' E 004°56'0 0.2
2017-Sep-21 11:30N 60°27' E 004°56'0 0.0
2017-Sep-21 10:59N 60°27' E 004°56'0 0.0
2017-Sep-21 10:30N 60°27' E 004°56'0 0.1
2017-Sep-21 10:00N 60°27' E 004°56'0 0.4
2017-Sep-21 09:30N 60°27' E 004°56'1 1.9
2017-Sep-21 09:00N 60°26' E 004°57'0 1.0
2017-Sep-21 08:30N 60°26' E 004°58'1 2.0
2017-Sep-21 08:00N 60°27' E 004°56'2 4.8
2017-Sep-21 07:30N 60°27' E 005°00'510.0
2017-Sep-21 07:00N 60°24' E 005°08'4 7.8
2017-Sep-21 06:30N 60°25' E 005°16'2 4.5
2017-Sep-21 06:00N 60°27' E 005°19'0 0.0
2017-Sep-21 05:30N 60°27' E 005°19'0 0.0
2017-Sep-21 05:00N 60°27' E 005°19'0 0.0
2017-Sep-21 04:30N 60°27' E 005°19'0 0.0
2017-Sep-21 03:59N 60°27' E 005°19'0 0.0
2017-Sep-21 03:30N 60°27' E 005°19'0 0.0
2017-Sep-21 03:00N 60°27' E 005°19'0 0.0
2017-Sep-21 02:30N 60°27' E 005°19'0 0.0
2017-Sep-21 02:00N 60°27' E 005°19'0 0.0
2017-Sep-21 01:30N 60°27' E 005°19'0 0.0
2017-Sep-21 01:00N 60°27' E 005°19'0 0.0
2017-Sep-21 00:30N 60°27' E 005°19'0 0.0
2017-Sep-20 23:59N 60°27' E 005°19'0 0.0
2017-Sep-20 23:30N 60°27' E 005°19'0 0.0
2017-Sep-20 23:00N 60°27' E 005°19'0 0.0
2017-Sep-20 22:30N 60°27' E 005°19'0 0.0
2017-Sep-20 22:00N 60°27' E 005°19'0 0.0
2017-Sep-20 21:30N 60°27' E 005°19'0 0.0
2017-Sep-20 21:00N 60°27' E 005°19'0 0.0
2017-Sep-20 20:30N 60°27' E 005°19'0 0.0
2017-Sep-20 20:00N 60°27' E 005°19'0 0.0
2017-Sep-20 19:30N 60°27' E 005°19'0 0.0
2017-Sep-20 19:00N 60°27' E 005°19'0 0.0
2017-Sep-20 18:30N 60°27' E 005°19'0 0.0
2017-Sep-20 17:59N 60°27' E 005°19'0 0.0
2017-Sep-20 17:30N 60°27' E 005°19'0 0.0
2017-Sep-20 17:00N 60°27' E 005°19'0 0.0
2017-Sep-20 16:29N 60°27' E 005°19'0 0.0
2017-Sep-20 16:00N 60°27' E 005°19'0 0.0
2017-Sep-20 15:30N 60°27' E 005°19'0 0.0
2017-Sep-20 15:00N 60°27' E 005°19'0 0.0
2017-Sep-20 14:00N 60°27' E 005°19'0 0.0
2017-Sep-20 13:30N 60°27' E 005°19'0 0.0
2017-Sep-20 13:00N 60°27' E 005°19'0 0.0
2017-Sep-20 12:30N 60°27' E 005°19'0 0.0
2017-Sep-20 11:59N 60°27' E 005°19'0 0.0
2017-Sep-20 11:30N 60°27' E 005°19'0 0.0
2017-Sep-20 11:00N 60°27' E 005°19'0 0.0
2017-Sep-20 10:30N 60°27' E 005°19'0 0.0
2017-Sep-20 10:00N 60°27' E 005°19'0 0.0
2017-Sep-20 09:29N 60°27' E 005°19'0 0.0
2017-Sep-20 09:00N 60°27' E 005°19'0 0.0
2017-Sep-20 08:30N 60°27' E 005°19'0 0.0
2017-Sep-20 07:59N 60°27' E 005°19'0 0.0
2017-Sep-20 07:30N 60°27' E 005°19'0 0.0
2017-Sep-20 07:00N 60°27' E 005°19'0 0.0
2017-Sep-20 06:30N 60°27' E 005°19'0 0.0
2017-Sep-20 06:00N 60°27' E 005°19'0 0.0
2017-Sep-20 05:30N 60°27' E 005°19'0 0.0
2017-Sep-20 05:00N 60°27' E 005°19'0 0.0
2017-Sep-20 04:30N 60°27' E 005°19'0 0.0
2017-Sep-20 04:00N 60°27' E 005°19'0 0.0
2017-Sep-20 03:30N 60°27' E 005°19'0 0.0
2017-Sep-20 03:00N 60°27' E 005°19'0 0.0
2017-Sep-20 02:30N 60°27' E 005°19'0 0.0
2017-Sep-20 02:00N 60°27' E 005°19'0 0.0
2017-Sep-20 01:30N 60°27' E 005°19'0 0.0
2017-Sep-20 01:00N 60°27' E 005°19'0 0.0
2017-Sep-20 00:30N 60°27' E 005°19'0 0.0
2017-Sep-20 00:00N 60°27' E 005°19'0 0.0
2017-Sep-19 23:30N 60°27' E 005°19'0 0.0
2017-Sep-19 23:00N 60°27' E 005°19'0 0.0
2017-Sep-19 22:30N 60°27' E 005°19'0 0.0
2017-Sep-19 22:00N 60°27' E 005°19'0 0.0
2017-Sep-19 21:30N 60°27' E 005°19'0 0.0
2017-Sep-19 21:00N 60°27' E 005°19'0 0.0
2017-Sep-19 20:30N 60°27' E 005°19'0 0.0
2017-Sep-19 19:59N 60°27' E 005°19'0 0.0
2017-Sep-19 19:30N 60°27' E 005°19'0 0.0
2017-Sep-19 19:00N 60°27' E 005°19'0 0.0
2017-Sep-19 18:30N 60°27' E 005°19'0 0.0
2017-Sep-19 18:00N 60°27' E 005°19'0 0.0
2017-Sep-19 17:30N 60°27' E 005°19'0 0.0
2017-Sep-19 17:00N 60°27' E 005°19'0 0.0
2017-Sep-19 16:30N 60°27' E 005°19'0 0.0
2017-Sep-19 16:00N 60°27' E 005°19'0 0.0
2017-Sep-19 15:30N 60°27' E 005°19'0 0.0
2017-Sep-19 15:00N 60°27' E 005°19'0 0.0
2017-Sep-19 14:30N 60°27' E 005°19'0 0.0
2017-Sep-19 14:00N 60°27' E 005°19'0 0.0
2017-Sep-19 13:29N 60°27' E 005°19'0 0.0
2017-Sep-19 13:00N 60°27' E 005°19'0 0.0
2017-Sep-19 12:30N 60°27' E 005°19'0 0.0
2017-Sep-19 12:00N 60°27' E 005°19'0 0.0
2017-Sep-19 11:30N 60°27' E 005°19'0 0.0
2017-Sep-19 11:00N 60°27' E 005°19'0 0.0
2017-Sep-19 10:30N 60°27' E 005°19'0 0.0
2017-Sep-19 10:00N 60°27' E 005°19'0 0.0
2017-Sep-19 09:30N 60°27' E 005°19'0 0.0
2017-Sep-19 09:00N 60°27' E 005°19'0 0.0
2017-Sep-19 08:30N 60°27' E 005°19'0 0.0
2017-Sep-19 08:00N 60°27' E 005°19'0 0.0
2017-Sep-19 07:29N 60°27' E 005°19'0 0.0
2017-Sep-19 07:00N 60°27' E 005°19'0 0.0
2017-Sep-19 06:30N 60°27' E 005°19'0 0.0
2017-Sep-19 06:00N 60°27' E 005°19'0 0.0
2017-Sep-19 05:29N 60°27' E 005°19'0 0.0
2017-Sep-19 05:00N 60°27' E 005°19'0 0.0
2017-Sep-19 04:30N 60°27' E 005°19'0 0.0
2017-Sep-19 04:00N 60°27' E 005°19'0 0.0
2017-Sep-19 03:30N 60°27' E 005°19'0 0.0
2017-Sep-19 03:00N 60°27' E 005°19'0 0.0
2017-Sep-19 02:30N 60°27' E 005°19'0 0.0
2017-Sep-19 02:00N 60°27' E 005°19'0 0.0
2017-Sep-19 01:30N 60°27' E 005°19'0 0.0
2017-Sep-19 01:00N 60°27' E 005°19'0 0.0
2017-Sep-19 00:30N 60°27' E 005°19'0 0.0
2017-Sep-19 00:00N 60°27' E 005°19'0 0.0
2017-Sep-18 23:30N 60°27' E 005°19'0 0.0
2017-Sep-18 23:00N 60°27' E 005°19'0 0.0
2017-Sep-18 22:30N 60°27' E 005°19'0 0.0
2017-Sep-18 21:59N 60°27' E 005°19'0 0.0
2017-Sep-18 21:30N 60°27' E 005°19'0 0.0
2017-Sep-18 20:59N 60°27' E 005°19'0 0.0
2017-Sep-18 20:30N 60°27' E 005°19'0 0.0
2017-Sep-18 20:00N 60°27' E 005°19'0 0.0
2017-Sep-18 19:29N 60°27' E 005°19'0 0.0
2017-Sep-18 19:00N 60°27' E 005°19'0 0.0
2017-Sep-18 18:30N 60°27' E 005°19'0 0.0
2017-Sep-18 17:59N 60°27' E 005°19'0 0.0
2017-Sep-18 17:30N 60°27' E 005°19'0 0.0
2017-Sep-18 17:00N 60°27' E 005°19'0 0.0
2017-Sep-18 16:30N 60°27' E 005°19'0 0.0
2017-Sep-18 16:00N 60°27' E 005°19'3 6.6
2017-Sep-18 15:29N 60°30' E 005°15'4 8.4
2017-Sep-18 15:00N 60°34' E 005°14'4 8.9
2017-Sep-18 14:30N 60°38' E 005°10'4 8.4
2017-Sep-18 14:00N 60°41' E 005°06'4 8.5
2017-Sep-18 13:30N 60°45' E 005°02'4 9.0
2017-Sep-18 13:00N 60°49' E 004°56'4 8.4
2017-Sep-18 12:30N 60°51' E 005°04'0 0.5
2017-Sep-18 11:59N 60°51' E 005°04'0 0.0
2017-Sep-18 11:29N 60°51' E 005°04'0 0.0
2017-Sep-18 11:00N 60°51' E 005°04'0 0.0
2017-Sep-18 10:30N 60°51' E 005°04'0 0.0
2017-Sep-18 10:00N 60°51' E 005°04'0 0.0
2017-Sep-18 09:30N 60°51' E 005°04'0 0.0
2017-Sep-18 09:00N 60°51' E 005°04'0 0.0
2017-Sep-18 08:30N 60°51' E 005°04'0 0.0
2017-Sep-18 08:00N 60°51' E 005°04'0 0.0
2017-Sep-18 07:30N 60°51' E 005°04'0 0.0
2017-Sep-18 07:00N 60°51' E 005°04'0 0.0
2017-Sep-18 06:30N 60°51' E 005°04'1 1.2
2017-Sep-18 06:00N 60°51' E 005°03'0 0.7
2017-Sep-18 05:30N 60°51' E 005°02'0 0.0
2017-Sep-18 05:00N 60°51' E 005°02'0 0.0
2017-Sep-18 04:30N 60°51' E 005°02'0 0.0
2017-Sep-18 04:00N 60°51' E 005°02'0 0.0
2017-Sep-18 03:29N 60°51' E 005°02'0 0.0
2017-Sep-18 02:59N 60°51' E 005°02'0 0.0
2017-Sep-18 02:30N 60°51' E 005°02'0 0.0
2017-Sep-18 02:00N 60°51' E 005°02'0 0.0
2017-Sep-18 01:30N 60°51' E 005°02'0 0.0
2017-Sep-18 01:00N 60°51' E 005°02'0 0.0
2017-Sep-18 00:29N 60°51' E 005°02'0 0.0
2017-Sep-18 00:00N 60°51' E 005°02'0 0.0
2017-Sep-17 23:30N 60°51' E 005°02'0 0.0
2017-Sep-17 23:00N 60°51' E 005°02'0 0.0
2017-Sep-17 22:30N 60°51' E 005°02'0 0.0
2017-Sep-17 22:00N 60°51' E 005°02'0 0.0
2017-Sep-17 21:30N 60°51' E 005°02'0 0.0
2017-Sep-17 21:00N 60°51' E 005°02'0 0.0
2017-Sep-17 20:30N 60°51' E 005°02'0 0.0
2017-Sep-17 20:00N 60°51' E 005°02'0 0.0
2017-Sep-17 19:30N 60°51' E 005°02'0 0.0
2017-Sep-17 19:00N 60°51' E 005°02'0 0.0
2017-Sep-17 18:30N 60°51' E 005°02'0 0.0
2017-Sep-17 18:00N 60°51' E 005°02'0 0.0
2017-Sep-17 17:30N 60°51' E 005°02'0 0.0
2017-Sep-17 17:00N 60°51' E 005°02'0 0.0
2017-Sep-17 16:29N 60°51' E 005°02'0 0.0
2017-Sep-17 16:00N 60°51' E 005°02'0 0.0
2017-Sep-17 15:30N 60°51' E 005°02'0 0.0
2017-Sep-17 15:00N 60°51' E 005°02'0 0.0
2017-Sep-17 14:30N 60°51' E 005°02'0 0.0
2017-Sep-17 14:00N 60°51' E 005°02'0 0.0
2017-Sep-17 13:30N 60°51' E 005°02'0 0.0
2017-Sep-17 13:00N 60°51' E 005°02'0 0.0
2017-Sep-17 12:30N 60°51' E 005°02'0 0.0
2017-Sep-17 11:59N 60°51' E 005°02'0 0.0
2017-Sep-17 11:30N 60°51' E 005°02'0 0.0
2017-Sep-17 11:00N 60°51' E 005°02'0 0.0
2017-Sep-17 10:29N 60°51' E 005°02'0 0.1
2017-Sep-17 10:00N 60°51' E 005°02'0 0.1
2017-Sep-17 09:30N 60°51' E 005°02'0 0.0
2017-Sep-17 09:00N 60°51' E 005°02'0 0.1
2017-Sep-17 08:30N 60°51' E 005°02'0 0.6
2017-Sep-17 07:59N 60°51' E 005°03'0 0.6
2017-Sep-17 07:30N 60°51' E 005°03'0 0.6
2017-Sep-17 07:00N 60°51' E 005°04'0 0.5
2017-Sep-17 06:30N 60°51' E 005°04'0 0.0
2017-Sep-17 06:00N 60°51' E 005°04'0 0.0
2017-Sep-17 05:30N 60°51' E 005°04'0 0.0
2017-Sep-17 05:00N 60°51' E 005°04'0 0.0
2017-Sep-17 04:30N 60°51' E 005°04'0 0.0
2017-Sep-17 04:00N 60°51' E 005°04'0 0.0
2017-Sep-17 03:30N 60°51' E 005°04'0 0.0
2017-Sep-17 02:59N 60°51' E 005°04'0 0.0
2017-Sep-17 02:30N 60°51' E 005°04'0 0.0
2017-Sep-17 02:00N 60°51' E 005°04'0 0.0
2017-Sep-17 01:29N 60°51' E 005°04'0 0.0
2017-Sep-17 01:00N 60°51' E 005°04'0 0.0
2017-Sep-17 00:30N 60°51' E 005°04'0 0.0
2017-Sep-16 23:59N 60°51' E 005°04'0 0.0
2017-Sep-16 23:30N 60°51' E 005°04'0 0.0
2017-Sep-16 22:59N 60°51' E 005°04'0 0.0
2017-Sep-16 22:30N 60°51' E 005°04'0 0.0
2017-Sep-16 22:00N 60°51' E 005°04'0 0.0
2017-Sep-16 21:30N 60°51' E 005°04'0 0.0
2017-Sep-16 21:00N 60°51' E 005°04'0 0.0
2017-Sep-16 20:30N 60°51' E 005°04'0 0.0
2017-Sep-16 20:00N 60°51' E 005°04'0 0.0
2017-Sep-16 19:30N 60°51' E 005°04'0 0.0
2017-Sep-16 19:00N 60°51' E 005°04'0 0.0
2017-Sep-16 18:30N 60°51' E 005°04'0 0.0
2017-Sep-16 17:59N 60°51' E 005°04'0 0.0
2017-Sep-16 17:30N 60°51' E 005°04'0 0.0
2017-Sep-16 17:00N 60°51' E 005°04'0 0.0
2017-Sep-16 16:30N 60°51' E 005°04'0 0.0
2017-Sep-16 16:00N 60°51' E 005°04'0 0.0
2017-Sep-16 15:30N 60°51' E 005°04'0 0.0
2017-Sep-16 15:00N 60°51' E 005°04'0 0.0
2017-Sep-16 14:30N 60°51' E 005°04'0 0.0
2017-Sep-16 14:00N 60°51' E 005°04'0 0.0
2017-Sep-16 13:29N 60°51' E 005°04'0 0.0
2017-Sep-16 13:00N 60°51' E 005°04'0 0.0
2017-Sep-16 12:30N 60°51' E 005°04'0 0.0
2017-Sep-16 11:59N 60°51' E 005°04'0 0.0
2017-Sep-16 11:29N 60°51' E 005°04'0 0.0
2017-Sep-16 11:00N 60°51' E 005°04'0 0.0
2017-Sep-16 10:29N 60°51' E 005°04'1 1.9
2017-Sep-16 10:00N 60°51' E 005°02'1 1.8
2017-Sep-16 09:30N 60°50' E 005°02'3 6.4
2017-Sep-16 09:00N 60°47' E 004°59'4 8.9
2017-Sep-16 08:30N 60°43' E 005°03'5 9.5
2017-Sep-16 08:00N 60°39' E 005°07'5 9.6
2017-Sep-16 07:30N 60°35' E 005°13'4 8.8
2017-Sep-16 07:00N 60°31' E 005°16'5 9.6
2017-Sep-16 06:30N 60°26' E 005°16'4 7.2
2017-Sep-16 06:00N 60°23' E 005°19'0 0.0
2017-Sep-16 05:30N 60°23' E 005°19'0 0.0
2017-Sep-16 05:00N 60°23' E 005°19'0 0.0
2017-Sep-16 04:30N 60°23' E 005°19'0 0.0
2017-Sep-16 04:00N 60°23' E 005°19'0 0.0
2017-Sep-16 03:30N 60°23' E 005°19'0 0.0
2017-Sep-16 02:59N 60°23' E 005°19'0 0.0
2017-Sep-16 02:30N 60°23' E 005°19'0 0.0
2017-Sep-16 02:00N 60°23' E 005°19'0 0.0
2017-Sep-16 01:30N 60°23' E 005°19'0 0.0
2017-Sep-16 01:00N 60°23' E 005°19'0 0.0
2017-Sep-16 00:30N 60°23' E 005°19'0 0.0
2017-Sep-16 00:00N 60°23' E 005°19'0 0.0
2017-Sep-15 23:29N 60°23' E 005°19'0 0.0
2017-Sep-15 23:00N 60°23' E 005°19'0 0.0
2017-Sep-15 22:30N 60°23' E 005°19'0 0.0
2017-Sep-15 22:00N 60°23' E 005°19'0 0.0
2017-Sep-15 21:30N 60°23' E 005°19'0 0.0
2017-Sep-15 21:00N 60°23' E 005°19'0 0.0
2017-Sep-15 20:30N 60°23' E 005°19'0 0.0
2017-Sep-15 20:00N 60°23' E 005°19'0 0.0
2017-Sep-15 19:30N 60°23' E 005°19'0 0.0
2017-Sep-15 19:00N 60°23' E 005°19'0 0.0
2017-Sep-15 18:30N 60°23' E 005°19'0 0.0
2017-Sep-15 18:00N 60°23' E 005°19'0 0.0
2017-Sep-15 17:30N 60°23' E 005°19'0 0.0
2017-Sep-15 17:00N 60°23' E 005°19'0 0.0
2017-Sep-15 16:30N 60°23' E 005°19'0 0.3
2017-Sep-15 16:00N 60°23' E 005°19'3 5.2
2017-Sep-15 15:30N 60°24' E 005°15'0 0.8
2017-Sep-15 15:00N 60°24' E 005°14'0 0.0
2017-Sep-15 14:29N 60°24' E 005°14'3 6.4
2017-Sep-15 13:59N 60°21' E 005°10'5 9.8
2017-Sep-15 13:30N 60°16' E 005°12'3 6.2
2017-Sep-15 13:00N 60°15' E 005°18'1 2.9
2017-Sep-15 12:30N 60°16' E 005°20'0 0.1
2017-Sep-15 12:00N 60°16' E 005°20'0 0.0
2017-Sep-15 11:30N 60°16' E 005°20'0 0.0
2017-Sep-15 11:00N 60°16' E 005°20'0 0.0
2017-Sep-15 10:30N 60°16' E 005°20'0 0.0
2017-Sep-15 10:00N 60°16' E 005°20'0 0.0
2017-Sep-15 09:29N 60°16' E 005°20'0 0.0
2017-Sep-15 09:00N 60°16' E 005°20'0 0.0
2017-Sep-15 08:30N 60°16' E 005°20'0 0.0
2017-Sep-15 08:00N 60°16' E 005°20'0 0.0
2017-Sep-15 07:30N 60°16' E 005°20'0 0.0
2017-Sep-15 07:00N 60°16' E 005°20'0 0.0
2017-Sep-15 06:30N 60°16' E 005°20'0 0.3
2017-Sep-15 06:00N 60°16' E 005°20'0 0.0
2017-Sep-15 05:30N 60°16' E 005°20'0 0.0
2017-Sep-15 05:00N 60°16' E 005°20'0 0.0
2017-Sep-15 04:30N 60°16' E 005°20'0 0.0
2017-Sep-15 04:00N 60°16' E 005°20'0 0.0
2017-Sep-15 03:30N 60°16' E 005°20'0 0.0
2017-Sep-15 03:00N 60°16' E 005°20'0 0.0
2017-Sep-15 02:30N 60°16' E 005°20'0 0.0
2017-Sep-15 02:00N 60°16' E 005°20'0 0.0
2017-Sep-15 01:29N 60°16' E 005°20'0 0.0
2017-Sep-15 01:00N 60°16' E 005°20'0 0.0
2017-Sep-15 00:29N 60°16' E 005°20'0 0.0
2017-Sep-14 23:59N 60°16' E 005°20'0 0.0
2017-Sep-14 23:30N 60°16' E 005°20'0 0.0
2017-Sep-14 23:00N 60°16' E 005°20'0 0.0
2017-Sep-14 22:30N 60°16' E 005°20'  
Track history (hours):
 
Tides and Currents Weather Stations Pressure Air Temp Water Temp Dewpoint Dewpoint Depression Visibility Wind Speed Wind Dir Waves Ship Positions

Nautilus Survey

Last reported at 2017-Sep-24 22:30 UTC. Time now 2017-Sep-24 23:01 UTC.
Position N 61°08' E 005°01'.

Length 24 m; draft 2 m.

Type: Dredging. MMSI: 259464000.

Date/timePositionNaut miles runAvg speedWind from/ knotsBaromVisibWave heightAir tempDewpointWater temp
2017-Sep-24 22:30N 61°08' E 005°01'0 0.0
2017-Sep-24 22:00N 61°08' E 005°01'0 0.0
2017-Sep-24 21:30N 61°08' E 005°01'0 0.0
2017-Sep-24 21:00N 61°08' E 005°01'0 0.0
2017-Sep-24 20:30N 61°08' E 005°01'0 0.0
2017-Sep-24 19:59N 61°08' E 005°01'0 0.0
2017-Sep-24 19:30N 61°08' E 005°01'0 0.0
2017-Sep-24 19:00N 61°08' E 005°01'4 8.9
2017-Sep-24 18:30N 61°04' E 004°59'5 9.7
2017-Sep-24 18:00N 60°59' E 004°55'510.3
2017-Sep-24 17:30N 60°54' E 004°58'510.2
2017-Sep-24 17:00N 60°49' E 004°57'5 9.8
2017-Sep-24 16:30N 60°45' E 005°02'5 9.2
2017-Sep-24 16:00N 60°41' E 005°06'4 8.7
2017-Sep-24 15:30N 60°37' E 005°11'4 8.7
2017-Sep-24 15:00N 60°33' E 005°15'4 8.9
2017-Sep-24 14:30N 60°29' E 005°15'3 5.7
2017-Sep-24 13:59N 60°27' E 005°19'0 0.0
2017-Sep-24 13:30N 60°27' E 005°19'1 1.9
2017-Sep-24 13:00N 60°27' E 005°17'5 8.9
2017-Sep-24 12:30N 60°23' E 005°11'5 9.5
2017-Sep-24 12:00N 60°26' E 005°03'3 6.7
2017-Sep-24 11:30N 60°27' E 004°57'1 1.5
2017-Sep-24 11:00N 60°26' E 004°57'0 0.1
2017-Sep-24 10:30N 60°26' E 004°57'0 0.0
2017-Sep-24 10:00N 60°26' E 004°57'0 0.6
2017-Sep-24 09:30N 60°27' E 004°57'0 0.4
2017-Sep-24 09:00N 60°27' E 004°57'0 0.6
2017-Sep-24 08:30N 60°27' E 004°56'0 0.6
2017-Sep-24 08:00N 60°27' E 004°56'0 0.0
2017-Sep-24 07:30N 60°27' E 004°56'0 0.0
2017-Sep-24 07:00N 60°27' E 004°56'0 0.0
2017-Sep-24 06:30N 60°27' E 004°56'0 0.0
2017-Sep-24 06:01N 60°27' E 004°56'0 0.0
2017-Sep-24 05:30N 60°27' E 004°56'0 0.0
2017-Sep-24 05:00N 60°27' E 004°56'0 0.0
2017-Sep-24 04:29N 60°27' E 004°56'0 0.0
2017-Sep-24 04:00N 60°27' E 004°56'0 0.0
2017-Sep-24 03:30N 60°27' E 004°56'0 0.0
2017-Sep-24 03:00N 60°27' E 004°56'0 0.0
2017-Sep-24 02:30N 60°27' E 004°56'0 0.0
2017-Sep-24 02:00N 60°27' E 004°56'0 0.0
2017-Sep-24 01:30N 60°27' E 004°56'0 0.0
2017-Sep-24 01:00N 60°27' E 004°56'0 0.0
2017-Sep-24 00:30N 60°27' E 004°56'0 0.0
2017-Sep-24 00:00N 60°27' E 004°56'0 0.0
2017-Sep-23 23:30N 60°27' E 004°56'0 0.0
2017-Sep-23 23:00N 60°27' E 004°56'0 0.0
2017-Sep-23 22:30N 60°27' E 004°56'0 0.0
2017-Sep-23 22:00N 60°27' E 004°56'0 0.0
2017-Sep-23 21:30N 60°27' E 004°56'0 0.0
2017-Sep-23 21:00N 60°27' E 004°56'0 0.0
2017-Sep-23 20:30N 60°27' E 004°56'0 0.0
2017-Sep-23 20:00N 60°27' E 004°56'1 0.0
2017-Sep-22 01:59N 60°27' E 004°57'0 0.0
2017-Sep-22 01:30N 60°27' E 004°57'0 0.0
2017-Sep-22 01:00N 60°27' E 004°57'0 0.0
2017-Sep-22 00:30N 60°27' E 004°57'0 0.0
2017-Sep-22 00:00N 60°27' E 004°57'0 0.0
2017-Sep-21 23:29N 60°27' E 004°57'0 0.0
2017-Sep-21 23:00N 60°27' E 004°57'0 0.0
2017-Sep-21 22:30N 60°27' E 004°57'0 0.0
2017-Sep-21 22:00N 60°27' E 004°57'0 0.0
2017-Sep-21 21:29N 60°27' E 004°57'0 0.0
2017-Sep-21 21:00N 60°27' E 004°57'0 0.0
2017-Sep-21 20:29N 60°27' E 004°57'0 0.0
2017-Sep-21 20:00N 60°27' E 004°57'0 0.0
2017-Sep-21 19:30N 60°27' E 004°57'0 0.0
2017-Sep-21 19:00N 60°27' E 004°57'0 0.0
2017-Sep-21 18:30N 60°27' E 004°57'0 0.0
2017-Sep-21 18:00N 60°27' E 004°57'0 0.0
2017-Sep-21 17:30N 60°27' E 004°57'1 1.7
2017-Sep-21 17:00N 60°27' E 004°57'0 0.6
2017-Sep-21 16:30N 60°27' E 004°57'0 0.5
2017-Sep-21 16:00N 60°27' E 004°57'0 0.4
2017-Sep-21 15:30N 60°26' E 004°57'0 0.1
2017-Sep-21 15:00N 60°26' E 004°57'1 1.2
2017-Sep-21 14:30N 60°27' E 004°57'0 0.1
2017-Sep-21 14:00N 60°27' E 004°57'0 0.4
2017-Sep-21 13:30N 60°27' E 004°56'0 0.4
2017-Sep-21 13:00N 60°27' E 004°56'0 0.2
2017-Sep-21 12:30N 60°27' E 004°56'0 0.1
2017-Sep-21 12:00N 60°27' E 004°56'0 0.2
2017-Sep-21 11:30N 60°27' E 004°56'0 0.0
2017-Sep-21 10:59N 60°27' E 004°56'0 0.0
2017-Sep-21 10:30N 60°27' E 004°56'0 0.1
2017-Sep-21 10:00N 60°27' E 004°56'0 0.4
2017-Sep-21 09:30N 60°27' E 004°56'1 1.9
2017-Sep-21 09:00N 60°26' E 004°57'0 1.0
2017-Sep-21 08:30N 60°26' E 004°58'1 2.0
2017-Sep-21 08:00N 60°27' E 004°56'2 4.8
2017-Sep-21 07:30N 60°27' E 005°00'510.0
2017-Sep-21 07:00N 60°24' E 005°08'4 7.8
2017-Sep-21 06:30N 60°25' E 005°16'2 4.5
2017-Sep-21 06:00N 60°27' E 005°19'0 0.0
2017-Sep-21 05:30N 60°27' E 005°19'0 0.0
2017-Sep-21 05:00N 60°27' E 005°19'0 0.0
2017-Sep-21 04:30N 60°27' E 005°19'0 0.0
2017-Sep-21 03:59N 60°27' E 005°19'0 0.0
2017-Sep-21 03:30N 60°27' E 005°19'0 0.0
2017-Sep-21 03:00N 60°27' E 005°19'0 0.0
2017-Sep-21 02:30N 60°27' E 005°19'0 0.0
2017-Sep-21 02:00N 60°27' E 005°19'0 0.0
2017-Sep-21 01:30N 60°27' E 005°19'0 0.0
2017-Sep-21 01:00N 60°27' E 005°19'0 0.0
2017-Sep-21 00:30N 60°27' E 005°19'0 0.0
2017-Sep-20 23:59N 60°27' E 005°19'0 0.0
2017-Sep-20 23:30N 60°27' E 005°19'0 0.0
2017-Sep-20 23:00N 60°27' E 005°19'0 0.0
2017-Sep-20 22:30N 60°27' E 005°19'0 0.0
2017-Sep-20 22:00N 60°27' E 005°19'0 0.0
2017-Sep-20 21:30N 60°27' E 005°19'0 0.0
2017-Sep-20 21:00N 60°27' E 005°19'0 0.0
2017-Sep-20 20:30N 60°27' E 005°19'0 0.0
2017-Sep-20 20:00N 60°27' E 005°19'0 0.0
2017-Sep-20 19:30N 60°27' E 005°19'0 0.0
2017-Sep-20 19:00N 60°27' E 005°19'0 0.0
2017-Sep-20 18:30N 60°27' E 005°19'0 0.0
2017-Sep-20 17:59N 60°27' E 005°19'0 0.0
2017-Sep-20 17:30N 60°27' E 005°19'0 0.0
2017-Sep-20 17:00N 60°27' E 005°19'0 0.0
2017-Sep-20 16:29N 60°27' E 005°19'0 0.0
2017-Sep-20 16:00N 60°27' E 005°19'0 0.0
2017-Sep-20 15:30N 60°27' E 005°19'0 0.0
2017-Sep-20 15:00N 60°27' E 005°19'0 0.0
2017-Sep-20 14:00N 60°27' E 005°19'0 0.0
2017-Sep-20 13:30N 60°27' E 005°19'0 0.0
2017-Sep-20 13:00N 60°27' E 005°19'0 0.0
2017-Sep-20 12:30N 60°27' E 005°19'0 0.0
2017-Sep-20 11:59N 60°27' E 005°19'0 0.0
2017-Sep-20 11:30N 60°27' E 005°19'0 0.0
2017-Sep-20 11:00N 60°27' E 005°19'0 0.0
2017-Sep-20 10:30N 60°27' E 005°19'0 0.0
2017-Sep-20 10:00N 60°27' E 005°19'0 0.0
2017-Sep-20 09:29N 60°27' E 005°19'0 0.0
2017-Sep-20 09:00N 60°27' E 005°19'0 0.0
2017-Sep-20 08:30N 60°27' E 005°19'0 0.0
2017-Sep-20 07:59N 60°27' E 005°19'0 0.0
2017-Sep-20 07:30N 60°27' E 005°19'0 0.0
2017-Sep-20 07:00N 60°27' E 005°19'0 0.0
2017-Sep-20 06:30N 60°27' E 005°19'0 0.0
2017-Sep-20 06:00N 60°27' E 005°19'0 0.0
2017-Sep-20 05:30N 60°27' E 005°19'0 0.0
2017-Sep-20 05:00N 60°27' E 005°19'0 0.0
2017-Sep-20 04:30N 60°27' E 005°19'0 0.0
2017-Sep-20 04:00N 60°27' E 005°19'0 0.0
2017-Sep-20 03:30N 60°27' E 005°19'0 0.0
2017-Sep-20 03:00N 60°27' E 005°19'0 0.0
2017-Sep-20 02:30N 60°27' E 005°19'0 0.0
2017-Sep-20 02:00N 60°27' E 005°19'0 0.0
2017-Sep-20 01:30N 60°27' E 005°19'0 0.0
2017-Sep-20 01:00N 60°27' E 005°19'0 0.0
2017-Sep-20 00:30N 60°27' E 005°19'0 0.0
2017-Sep-20 00:00N 60°27' E 005°19'0 0.0
2017-Sep-19 23:30N 60°27' E 005°19'0 0.0
2017-Sep-19 23:00N 60°27' E 005°19'0 0.0
2017-Sep-19 22:30N 60°27' E 005°19'0 0.0
2017-Sep-19 22:00N 60°27' E 005°19'0 0.0
2017-Sep-19 21:30N 60°27' E 005°19'0 0.0
2017-Sep-19 21:00N 60°27' E 005°19'0 0.0
2017-Sep-19 20:30N 60°27' E 005°19'0 0.0
2017-Sep-19 19:59N 60°27' E 005°19'0 0.0
2017-Sep-19 19:30N 60°27' E 005°19'0 0.0
2017-Sep-19 19:00N 60°27' E 005°19'0 0.0
2017-Sep-19 18:30N 60°27' E 005°19'0 0.0
2017-Sep-19 18:00N 60°27' E 005°19'0 0.0
2017-Sep-19 17:30N 60°27' E 005°19'0 0.0
2017-Sep-19 17:00N 60°27' E 005°19'0 0.0
2017-Sep-19 16:30N 60°27' E 005°19'0 0.0
2017-Sep-19 16:00N 60°27' E 005°19'0 0.0
2017-Sep-19 15:30N 60°27' E 005°19'0 0.0
2017-Sep-19 15:00N 60°27' E 005°19'0 0.0
2017-Sep-19 14:30N 60°27' E 005°19'0 0.0
2017-Sep-19 14:00N 60°27' E 005°19'0 0.0
2017-Sep-19 13:29N 60°27' E 005°19'0 0.0
2017-Sep-19 13:00N 60°27' E 005°19'0 0.0
2017-Sep-19 12:30N 60°27' E 005°19'0 0.0
2017-Sep-19 12:00N 60°27' E 005°19'0 0.0
2017-Sep-19 11:30N 60°27' E 005°19'0 0.0
2017-Sep-19 11:00N 60°27' E 005°19'0 0.0
2017-Sep-19 10:30N 60°27' E 005°19'0 0.0
2017-Sep-19 10:00N 60°27' E 005°19'0 0.0
2017-Sep-19 09:30N 60°27' E 005°19'0 0.0
2017-Sep-19 09:00N 60°27' E 005°19'0 0.0
2017-Sep-19 08:30N 60°27' E 005°19'0 0.0
2017-Sep-19 08:00N 60°27' E 005°19'0 0.0
2017-Sep-19 07:29N 60°27' E 005°19'0 0.0
2017-Sep-19 07:00N 60°27' E 005°19'0 0.0
2017-Sep-19 06:30N 60°27' E 005°19'0 0.0
2017-Sep-19 06:00N 60°27' E 005°19'0 0.0
2017-Sep-19 05:29N 60°27' E 005°19'0 0.0
2017-Sep-19 05:00N 60°27' E 005°19'0 0.0
2017-Sep-19 04:30N 60°27' E 005°19'0 0.0
2017-Sep-19 04:00N 60°27' E 005°19'0 0.0
2017-Sep-19 03:30N 60°27' E 005°19'0 0.0
2017-Sep-19 03:00N 60°27' E 005°19'0 0.0
2017-Sep-19 02:30N 60°27' E 005°19'0 0.0
2017-Sep-19 02:00N 60°27' E 005°19'0 0.0
2017-Sep-19 01:30N 60°27' E 005°19'0 0.0
2017-Sep-19 01:00N 60°27' E 005°19'0 0.0
2017-Sep-19 00:30N 60°27' E 005°19'0 0.0
2017-Sep-19 00:00N 60°27' E 005°19'0 0.0
2017-Sep-18 23:30N 60°27' E 005°19'0 0.0
2017-Sep-18 23:00N 60°27' E 005°19'0 0.0
2017-Sep-18 22:30N 60°27' E 005°19'0 0.0
2017-Sep-18 21:59N 60°27' E 005°19'0 0.0
2017-Sep-18 21:30N 60°27' E 005°19'0 0.0
2017-Sep-18 20:59N 60°27' E 005°19'0 0.0
2017-Sep-18 20:30N 60°27' E 005°19'0 0.0
2017-Sep-18 20:00N 60°27' E 005°19'0 0.0
2017-Sep-18 19:29N 60°27' E 005°19'0 0.0
2017-Sep-18 19:00N 60°27' E 005°19'0 0.0
2017-Sep-18 18:30N 60°27' E 005°19'0 0.0
2017-Sep-18 17:59N 60°27' E 005°19'0 0.0
2017-Sep-18 17:30N 60°27' E 005°19'0 0.0
2017-Sep-18 17:00N 60°27' E 005°19'0 0.0
2017-Sep-18 16:30N 60°27' E 005°19'0 0.0
2017-Sep-18 16:00N 60°27' E 005°19'3 6.6
2017-Sep-18 15:29N 60°30' E 005°15'4 8.4
2017-Sep-18 15:00N 60°34' E 005°14'4 8.9
2017-Sep-18 14:30N 60°38' E 005°10'4 8.4
2017-Sep-18 14:00N 60°41' E 005°06'4 8.5
2017-Sep-18 13:30N 60°45' E 005°02'4 9.0
2017-Sep-18 13:00N 60°49' E 004°56'4 8.4
2017-Sep-18 12:30N 60°51' E 005°04'0 0.5
2017-Sep-18 11:59N 60°51' E 005°04'0 0.0
2017-Sep-18 11:29N 60°51' E 005°04'0 0.0
2017-Sep-18 11:00N 60°51' E 005°04'0 0.0
2017-Sep-18 10:30N 60°51' E 005°04'0 0.0
2017-Sep-18 10:00N 60°51' E 005°04'0 0.0
2017-Sep-18 09:30N 60°51' E 005°04'0 0.0
2017-Sep-18 09:00N 60°51' E 005°04'0 0.0
2017-Sep-18 08:30N 60°51' E 005°04'0 0.0
2017-Sep-18 08:00N 60°51' E 005°04'0 0.0
2017-Sep-18 07:30N 60°51' E 005°04'0 0.0
2017-Sep-18 07:00N 60°51' E 005°04'0 0.0
2017-Sep-18 06:30N 60°51' E 005°04'1 1.2
2017-Sep-18 06:00N 60°51' E 005°03'0 0.7
2017-Sep-18 05:30N 60°51' E 005°02'0 0.0
2017-Sep-18 05:00N 60°51' E 005°02'0 0.0
2017-Sep-18 04:30N 60°51' E 005°02'0 0.0
2017-Sep-18 04:00N 60°51' E 005°02'0 0.0
2017-Sep-18 03:29N 60°51' E 005°02'0 0.0
2017-Sep-18 02:59N 60°51' E 005°02'0 0.0
2017-Sep-18 02:30N 60°51' E 005°02'0 0.0
2017-Sep-18 02:00N 60°51' E 005°02'0 0.0
2017-Sep-18 01:30N 60°51' E 005°02'0 0.0
2017-Sep-18 01:00N 60°51' E 005°02'0 0.0
2017-Sep-18 00:29N 60°51' E 005°02'0 0.0
2017-Sep-18 00:00N 60°51' E 005°02'0 0.0
2017-Sep-17 23:30N 60°51' E 005°02'0 0.0
2017-Sep-17 23:00N 60°51' E 005°02'0 0.0
2017-Sep-17 22:30N 60°51' E 005°02'0 0.0
2017-Sep-17 22:00N 60°51' E 005°02'0 0.0
2017-Sep-17 21:30N 60°51' E 005°02'0 0.0
2017-Sep-17 21:00N 60°51' E 005°02'0 0.0
2017-Sep-17 20:30N 60°51' E 005°02'0 0.0
2017-Sep-17 20:00N 60°51' E 005°02'0 0.0
2017-Sep-17 19:30N 60°51' E 005°02'0 0.0
2017-Sep-17 19:00N 60°51' E 005°02'0 0.0
2017-Sep-17 18:30N 60°51' E 005°02'0 0.0
2017-Sep-17 18:00N 60°51' E 005°02'0 0.0
2017-Sep-17 17:30N 60°51' E 005°02'0 0.0
2017-Sep-17 17:00N 60°51' E 005°02'0 0.0
2017-Sep-17 16:29N 60°51' E 005°02'0 0.0
2017-Sep-17 16:00N 60°51' E 005°02'0 0.0
2017-Sep-17 15:30N 60°51' E 005°02'0 0.0
2017-Sep-17 15:00N 60°51' E 005°02'0 0.0
2017-Sep-17 14:30N 60°51' E 005°02'0 0.0
2017-Sep-17 14:00N 60°51' E 005°02'0 0.0
2017-Sep-17 13:30N 60°51' E 005°02'0 0.0
2017-Sep-17 13:00N 60°51' E 005°02'0 0.0
2017-Sep-17 12:30N 60°51' E 005°02'0 0.0
2017-Sep-17 11:59N 60°51' E 005°02'0 0.0
2017-Sep-17 11:30N 60°51' E 005°02'0 0.0
2017-Sep-17 11:00N 60°51' E 005°02'0 0.0
2017-Sep-17 10:29N 60°51' E 005°02'0 0.1
2017-Sep-17 10:00N 60°51' E 005°02'0 0.1
2017-Sep-17 09:30N 60°51' E 005°02'0 0.0
2017-Sep-17 09:00N 60°51' E 005°02'0 0.1
2017-Sep-17 08:30N 60°51' E 005°02'0 0.6
2017-Sep-17 07:59N 60°51' E 005°03'0 0.6
2017-Sep-17 07:30N 60°51' E 005°03'0 0.6
2017-Sep-17 07:00N 60°51' E 005°04'0 0.5
2017-Sep-17 06:30N 60°51' E 005°04'0 0.0
2017-Sep-17 06:00N 60°51' E 005°04'0 0.0
2017-Sep-17 05:30N 60°51' E 005°04'0 0.0
2017-Sep-17 05:00N 60°51' E 005°04'0 0.0
2017-Sep-17 04:30N 60°51' E 005°04'0 0.0
2017-Sep-17 04:00N 60°51' E 005°04'0 0.0
2017-Sep-17 03:30N 60°51' E 005°04'0 0.0
2017-Sep-17 02:59N 60°51' E 005°04'0 0.0
2017-Sep-17 02:30N 60°51' E 005°04'0 0.0
2017-Sep-17 02:00N 60°51' E 005°04'0 0.0
2017-Sep-17 01:29N 60°51' E 005°04'0 0.0
2017-Sep-17 01:00N 60°51' E 005°04'0 0.0
2017-Sep-17 00:30N 60°51' E 005°04'0 0.0
2017-Sep-16 23:59N 60°51' E 005°04'0 0.0
2017-Sep-16 23:30N 60°51' E 005°04'0 0.0
2017-Sep-16 22:59N 60°51' E 005°04'0 0.0
2017-Sep-16 22:30N 60°51' E 005°04'0 0.0
2017-Sep-16 22:00N 60°51' E 005°04'0 0.0
2017-Sep-16 21:30N 60°51' E 005°04'0 0.0
2017-Sep-16 21:00N 60°51' E 005°04'0 0.0
2017-Sep-16 20:30N 60°51' E 005°04'0 0.0
2017-Sep-16 20:00N 60°51' E 005°04'0 0.0
2017-Sep-16 19:30N 60°51' E 005°04'0 0.0
2017-Sep-16 19:00N 60°51' E 005°04'0 0.0
2017-Sep-16 18:30N 60°51' E 005°04'0 0.0
2017-Sep-16 17:59N 60°51' E 005°04'0 0.0
2017-Sep-16 17:30N 60°51' E 005°04'0 0.0
2017-Sep-16 17:00N 60°51' E 005°04'0 0.0
2017-Sep-16 16:30N 60°51' E 005°04'0 0.0
2017-Sep-16 16:00N 60°51' E 005°04'0 0.0
2017-Sep-16 15:30N 60°51' E 005°04'0 0.0
2017-Sep-16 15:00N 60°51' E 005°04'0 0.0
2017-Sep-16 14:30N 60°51' E 005°04'0 0.0
2017-Sep-16 14:00N 60°51' E 005°04'0 0.0
2017-Sep-16 13:29N 60°51' E 005°04'0 0.0
2017-Sep-16 13:00N 60°51' E 005°04'0 0.0
2017-Sep-16 12:30N 60°51' E 005°04'0 0.0
2017-Sep-16 11:59N 60°51' E 005°04'0 0.0
2017-Sep-16 11:29N 60°51' E 005°04'0 0.0
2017-Sep-16 11:00N 60°51' E 005°04'0 0.0
2017-Sep-16 10:29N 60°51' E 005°04'1 1.9
2017-Sep-16 10:00N 60°51' E 005°02'1 1.8
2017-Sep-16 09:30N 60°50' E 005°02'3 6.4
2017-Sep-16 09:00N 60°47' E 004°59'4 8.9
2017-Sep-16 08:30N 60°43' E 005°03'5 9.5
2017-Sep-16 08:00N 60°39' E 005°07'5 9.6
2017-Sep-16 07:30N 60°35' E 005°13'4 8.8
2017-Sep-16 07:00N 60°31' E 005°16'5 9.6
2017-Sep-16 06:30N 60°26' E 005°16'4 7.2
2017-Sep-16 06:00N 60°23' E 005°19'0 0.0
2017-Sep-16 05:30N 60°23' E 005°19'0 0.0
2017-Sep-16 05:00N 60°23' E 005°19'0 0.0
2017-Sep-16 04:30N 60°23' E 005°19'0 0.0
2017-Sep-16 04:00N 60°23' E 005°19'0 0.0
2017-Sep-16 03:30N 60°23' E 005°19'0 0.0
2017-Sep-16 02:59N 60°23' E 005°19'0 0.0
2017-Sep-16 02:30N 60°23' E 005°19'0 0.0
2017-Sep-16 02:00N 60°23' E 005°19'0 0.0
2017-Sep-16 01:30N 60°23' E 005°19'0 0.0
2017-Sep-16 01:00N 60°23' E 005°19'0 0.0
2017-Sep-16 00:30N 60°23' E 005°19'0 0.0
2017-Sep-16 00:00N 60°23' E 005°19'0 0.0
2017-Sep-15 23:29N 60°23' E 005°19'0 0.0
2017-Sep-15 23:00N 60°23' E 005°19'0 0.0
2017-Sep-15 22:30N 60°23' E 005°19'0 0.0
2017-Sep-15 22:00N 60°23' E 005°19'0 0.0
2017-Sep-15 21:30N 60°23' E 005°19'0 0.0
2017-Sep-15 21:00N 60°23' E 005°19'0 0.0
2017-Sep-15 20:30N 60°23' E 005°19'0 0.0
2017-Sep-15 20:00N 60°23' E 005°19'0 0.0
2017-Sep-15 19:30N 60°23' E 005°19'0 0.0
2017-Sep-15 19:00N 60°23' E 005°19'0 0.0
2017-Sep-15 18:30N 60°23' E 005°19'0 0.0
2017-Sep-15 18:00N 60°23' E 005°19'0 0.0
2017-Sep-15 17:30N 60°23' E 005°19'0 0.0
2017-Sep-15 17:00N 60°23' E 005°19'0 0.0
2017-Sep-15 16:30N 60°23' E 005°19'0 0.3
2017-Sep-15 16:00N 60°23' E 005°19'3 5.2
2017-Sep-15 15:30N 60°24' E 005°15'0 0.8
2017-Sep-15 15:00N 60°24' E 005°14'0 0.0
2017-Sep-15 14:29N 60°24' E 005°14'3 6.4
2017-Sep-15 13:59N 60°21' E 005°10'5 9.8
2017-Sep-15 13:30N 60°16' E 005°12'3 6.2
2017-Sep-15 13:00N 60°15' E 005°18'1 2.9
2017-Sep-15 12:30N 60°16' E 005°20'0 0.1
2017-Sep-15 12:00N 60°16' E 005°20'0 0.0
2017-Sep-15 11:30N 60°16' E 005°20'0 0.0
2017-Sep-15 11:00N 60°16' E 005°20'0 0.0
2017-Sep-15 10:30N 60°16' E 005°20'0 0.0
2017-Sep-15 10:00N 60°16' E 005°20'0 0.0
2017-Sep-15 09:29N 60°16' E 005°20'0 0.0
2017-Sep-15 09:00N 60°16' E 005°20'0 0.0
2017-Sep-15 08:30N 60°16' E 005°20'0 0.0
2017-Sep-15 08:00N 60°16' E 005°20'0 0.0
2017-Sep-15 07:30N 60°16' E 005°20'0 0.0
2017-Sep-15 07:00N 60°16' E 005°20'0 0.0
2017-Sep-15 06:30N 60°16' E 005°20'0 0.3
2017-Sep-15 06:00N 60°16' E 005°20'0 0.0
2017-Sep-15 05:30N 60°16' E 005°20'0 0.0
2017-Sep-15 05:00N 60°16' E 005°20'0 0.0
2017-Sep-15 04:30N 60°16' E 005°20'0 0.0
2017-Sep-15 04:00N 60°16' E 005°20'0 0.0
2017-Sep-15 03:30N 60°16' E 005°20'0 0.0
2017-Sep-15 03:00N 60°16' E 005°20'0 0.0
2017-Sep-15 02:30N 60°16' E 005°20'0 0.0
2017-Sep-15 02:00N 60°16' E 005°20'0 0.0
2017-Sep-15 01:29N 60°16' E 005°20'0 0.0
2017-Sep-15 01:00N 60°16' E 005°20'0 0.0
2017-Sep-15 00:29N 60°16' E 005°20'0 0.0
2017-Sep-14 23:59N 60°16' E 005°20'0 0.0
2017-Sep-14 23:30N 60°16' E 005°20'0 0.0
2017-Sep-14 23:00N 60°16' E 005°20'0 0.0
2017-Sep-14 22:30N 60°16' E 005°20'  

Dump ship's entire track history